Time;durP1;ratioP1;P1;durP2;ratioP2;P2;SDS_P1;SDS_P2;PMS_P1;PMS_P2;Temp;Humidity;BMP_temperature;BMP_pressure;BME280_temperature;BME280_humidity;BME280_pressure;Samples;Min_cycle;Max_cycle;Signal;HPM_P1;HPM_P2
2023/09/10 00:00:17;;;;;;;12.30;8.40;;;18.30;99.90;;;;;;5092878;28;20028;-77
2023/09/10 00:02:43;;;;;;;11.73;8.98;;;18.30;99.90;;;;;;5093361;28;20490;-76
2023/09/10 00:05:08;;;;;;;13.32;8.93;;;18.20;99.90;;;;;;5092959;28;20052;-76
2023/09/10 00:07:34;;;;;;;11.70;8.82;;;18.20;99.90;;;;;;5093404;28;20047;-76
2023/09/10 00:10:00;;;;;;;11.15;7.68;;;18.20;99.90;;;;;;5092905;28;20096;-76
2023/09/10 00:12:26;;;;;;;10.30;8.07;;;18.30;99.90;;;;;;5093213;28;20419;-77
2023/09/10 00:14:52;;;;;;;13.27;9.18;;;18.20;99.90;;;;;;5093033;28;20039;-77
2023/09/10 00:17:18;;;;;;;10.02;8.15;;;18.20;99.90;;;;;;5092389;28;20088;-76
2023/09/10 00:19:43;;;;;;;13.18;8.32;;;18.20;99.90;;;;;;5092816;28;20065;-76
2023/09/10 00:22:09;;;;;;;9.10;7.70;;;18.10;99.90;;;;;;5092121;28;20461;-76
2023/09/10 00:24:35;;;;;;;11.63;7.63;;;18.10;99.90;;;;;;5093269;28;20028;-77
2023/09/10 00:27:01;;;;;;;12.65;8.43;;;18.10;99.90;;;;;;5092491;28;20370;-77
2023/09/10 00:29:27;;;;;;;12.38;8.50;;;18.10;99.90;;;;;;5092765;28;20183;-77
2023/09/10 00:31:52;;;;;;;12.63;8.60;;;18.10;99.90;;;;;;5092943;28;20103;-76
2023/09/10 00:34:18;;;;;;;13.63;8.75;;;18.10;99.90;;;;;;5092129;28;20476;-76
2023/09/10 00:36:44;;;;;;;12.25;7.82;;;18.10;99.90;;;;;;5092482;28;20024;-76
2023/09/10 00:39:10;;;;;;;12.88;9.20;;;18.10;99.90;;;;;;5091790;28;20039;-76
2023/09/10 00:41:35;;;;;;;12.32;8.52;;;18.00;99.90;;;;;;5092831;28;20040;-75
2023/09/10 00:44:01;;;;;;;10.05;7.72;;;18.00;99.90;;;;;;5092321;28;20020;-75
2023/09/10 00:46:27;;;;;;;10.38;7.93;;;18.00;99.90;;;;;;5092765;28;20479;-74
2023/09/10 00:48:53;;;;;;;12.20;8.48;;;18.00;99.90;;;;;;5074837;28;20028;-75
2023/09/10 00:51:19;;;;;;;13.70;8.95;;;18.00;99.90;;;;;;5092449;28;20030;-75
2023/09/10 00:53:45;;;;;;;16.38;8.63;;;18.00;99.90;;;;;;5092777;28;20028;-75
2023/09/10 00:56:11;;;;;;;10.63;7.70;;;18.00;99.90;;;;;;5092522;28;20047;-75
2023/09/10 00:58:38;;;;;;;12.55;8.80;;;18.00;99.90;;;;;;5092813;28;20052;-75
2023/09/10 01:01:04;;;;;;;12.90;8.45;;;18.00;99.90;;;;;;5091735;28;20024;-75
2023/09/10 01:03:31;;;;;;;11.07;9.20;;;18.00;99.90;;;;;;5092706;28;20043;-74
2023/09/10 01:05:57;;;;;;;15.57;9.75;;;18.00;99.90;;;;;;5092015;28;20016;-75
2023/09/10 01:08:24;;;;;;;13.35;8.57;;;17.90;99.90;;;;;;5091777;28;20039;-75
2023/09/10 01:10:58;;;;;;;10.30;8.13;;;17.90;99.90;;;;;;5092348;28;20032;-75
2023/09/10 01:13:52;;;;;;;11.13;7.90;;;17.80;99.90;;;;;;5092265;28;20020;-76
2023/09/10 01:16:35;;;;;;;8.15;7.32;;;17.80;99.90;;;;;;5092158;28;20092;-76
2023/09/10 01:19:23;;;;;;;12.70;8.15;;;17.80;99.90;;;;;;5091672;28;20126;-76
2023/09/10 01:22:12;;;;;;;10.90;8.23;;;17.80;99.90;;;;;;5044898;28;20044;-76
2023/09/10 01:24:51;;;;;;;11.70;8.15;;;17.80;99.90;;;;;;5092240;28;20040;-76
2023/09/10 01:27:18;;;;;;;14.13;8.55;;;17.80;99.90;;;;;;5091581;28;20498;-76
2023/09/10 01:29:44;;;;;;;11.30;8.73;;;17.80;99.90;;;;;;5091952;28;20090;-76
2023/09/10 01:32:38;;;;;;;11.38;8.48;;;17.70;99.90;;;;;;5091684;28;20030;-76
2023/09/10 01:35:18;;;;;;;10.35;8.85;;;17.70;99.90;;;;;;5091848;28;20024;-76
2023/09/10 01:38:05;;;;;;;11.38;8.75;;;17.70;99.90;;;;;;5092153;28;20096;-76
2023/09/10 01:40:46;;;;;;;9.13;7.95;;;17.60;99.90;;;;;;5091712;28;20099;-77
2023/09/10 01:43:12;;;;;;;10.07;7.57;;;17.70;99.90;;;;;;5090702;28;20130;-77
2023/09/10 01:45:38;;;;;;;13.27;8.68;;;17.60;99.90;;;;;;5073496;28;20024;-75
2023/09/10 01:48:05;;;;;;;13.30;8.85;;;17.60;99.90;;;;;;5091197;28;20065;-75
2023/09/10 01:50:31;;;;;;;11.07;8.05;;;17.60;99.90;;;;;;5091744;28;20107;-75
2023/09/10 01:52:59;;;;;;;9.48;8.15;;;17.50;99.90;;;;;;5092064;28;20107;-75
2023/09/10 01:55:25;;;;;;;9.25;8.07;;;17.60;99.90;;;;;;5091929;28;20024;-76
2023/09/10 01:57:53;;;;;;;10.35;7.50;;;17.60;99.90;;;;;;5091989;28;20026;-75
2023/09/10 02:00:19;;;;;;;11.52;7.65;;;17.50;99.90;;;;;;5090860;28;20028;-77
2023/09/10 02:02:45;;;;;;;10.52;7.68;;;17.50;99.90;;;;;;5091678;28;20047;-77
2023/09/10 02:05:10;;;;;;;8.60;7.13;;;17.50;99.90;;;;;;5091098;28;20562;-77
2023/09/10 02:07:36;;;;;;;11.55;7.82;;;17.50;99.90;;;;;;5091356;28;20051;-76
2023/09/10 02:10:02;;;;;;;11.02;8.07;;;17.50;99.90;;;;;;5090905;28;20063;-76
2023/09/10 02:12:28;;;;;;;10.82;7.93;;;17.50;99.90;;;;;;5091657;28;20054;-76
2023/09/10 02:14:58;;;;;;;12.20;8.27;;;17.50;99.90;;;;;;5091197;28;20032;-76
2023/09/10 02:17:23;;;;;;;11.65;7.97;;;17.50;99.90;;;;;;5090967;28;20520;-76
2023/09/10 02:19:49;;;;;;;11.18;8.73;;;17.40;99.90;;;;;;5091163;28;20054;-75
2023/09/10 02:22:15;;;;;;;14.02;8.50;;;17.40;99.90;;;;;;5090665;28;20043;-76
2023/09/10 02:24:40;;;;;;;11.63;8.68;;;17.30;99.90;;;;;;5090964;28;20032;-76
2023/09/10 02:27:06;;;;;;;10.05;8.40;;;17.30;99.90;;;;;;5090447;28;20058;-75
2023/09/10 02:29:32;;;;;;;10.55;8.60;;;17.30;99.90;;;;;;5091037;28;20433;-75
2023/09/10 02:31:57;;;;;;;12.27;8.23;;;17.30;99.90;;;;;;5091309;28;20508;-75
2023/09/10 02:34:23;;;;;;;10.98;8.23;;;17.30;99.90;;;;;;5090739;28;20247;-75
2023/09/10 02:36:49;;;;;;;11.32;9.52;;;17.30;99.90;;;;;;5091157;28;20023;-75
2023/09/10 02:39:15;;;;;;;9.50;7.78;;;17.30;99.90;;;;;;5090574;28;20364;-76
2023/09/10 02:41:40;;;;;;;12.52;9.23;;;17.30;99.90;;;;;;5090833;28;20036;-75
2023/09/10 02:44:06;;;;;;;12.52;8.30;;;17.30;99.90;;;;;;5090706;28;20148;-75
2023/09/10 02:46:32;;;;;;;13.30;9.00;;;17.20;99.90;;;;;;5091031;28;20384;-75
2023/09/10 02:48:57;;;;;;;12.20;9.00;;;17.20;99.90;;;;;;5091281;28;20024;-75
2023/09/10 02:51:23;;;;;;;13.60;8.90;;;17.30;99.90;;;;;;5090394;28;20650;-75
2023/09/10 02:53:49;;;;;;;10.75;8.88;;;17.20;99.90;;;;;;5091320;28;20056;-75
2023/09/10 02:56:14;;;;;;;12.35;8.48;;;17.20;99.90;;;;;;5094291;28;20038;-76
2023/09/10 02:58:41;;;;;;;13.05;9.02;;;17.20;99.90;;;;;;5095436;28;20460;-76
2023/09/10 03:01:07;;;;;;;11.70;8.82;;;17.20;99.90;;;;;;5094480;28;20086;-76
2023/09/10 03:03:33;;;;;;;11.60;8.48;;;17.20;99.90;;;;;;5095252;28;20032;-75
2023/09/10 03:05:59;;;;;;;10.48;8.68;;;17.20;99.90;;;;;;5076988;28;20024;-76
2023/09/10 03:08:25;;;;;;;10.20;8.20;;;17.20;99.90;;;;;;5094532;28;20097;-76
2023/09/10 03:10:50;;;;;;;8.90;7.75;;;17.30;99.90;;;;;;5095177;28;20035;-76
2023/09/10 03:13:16;;;;;;;9.20;7.45;;;17.30;99.90;;;;;;5094357;28;20107;-77
2023/09/10 03:15:46;;;;;;;8.32;6.97;;;17.30;99.90;;;;;;5094840;28;20025;-76
2023/09/10 03:18:12;;;;;;;10.07;7.53;;;17.30;99.90;;;;;;5094338;28;20084;-76
2023/09/10 03:20:38;;;;;;;9.73;8.57;;;17.30;99.90;;;;;;5094954;28;20566;-76
2023/09/10 03:23:04;;;;;;;11.23;8.32;;;17.20;99.90;;;;;;5076320;28;20112;-76
2023/09/10 03:25:35;;;;;;;15.38;8.50;;;17.20;99.90;;;;;;5093852;28;20036;-76
2023/09/10 03:28:00;;;;;;;10.48;8.02;;;17.20;99.90;;;;;;5094816;28;20095;-76
2023/09/10 03:30:26;;;;;;;14.27;8.68;;;17.20;99.90;;;;;;5093885;28;20495;-77
2023/09/10 03:32:52;;;;;;;14.02;9.35;;;17.10;99.90;;;;;;5094550;28;20492;-76
2023/09/10 03:35:17;;;;;;;14.10;9.40;;;17.10;99.90;;;;;;5075671;28;20020;-76
2023/09/10 03:37:43;;;;;;;12.23;8.52;;;17.00;99.90;;;;;;5094391;28;20032;-76
2023/09/10 03:40:09;;;;;;;12.80;8.18;;;17.00;99.90;;;;;;5093996;28;20024;-76
2023/09/10 03:42:36;;;;;;;12.80;8.63;;;16.90;99.90;;;;;;5076230;28;20036;-76
2023/09/10 03:45:02;;;;;;;10.18;8.20;;;16.90;99.90;;;;;;5094568;28;20036;-76
2023/09/10 03:47:29;;;;;;;10.43;7.53;;;17.00;99.90;;;;;;5093337;28;20047;-75
2023/09/10 03:49:55;;;;;;;10.95;8.10;;;17.00;99.90;;;;;;5094364;28;20032;-76
2023/09/10 03:52:21;;;;;;;10.73;8.43;;;16.90;99.90;;;;;;5093581;28;20038;-77
2023/09/10 03:54:48;;;;;;;10.50;8.50;;;17.00;99.90;;;;;;5094496;28;20024;-77
2023/09/10 03:57:14;;;;;;;9.82;8.82;;;17.00;99.90;;;;;;5093614;28;20043;-76
2023/09/10 03:59:40;;;;;;;11.05;8.70;;;16.90;99.90;;;;;;5094058;28;20032;-76
2023/09/10 04:02:06;;;;;;;10.95;8.02;;;16.90;99.90;;;;;;5094217;28;20117;-75
2023/09/10 04:04:33;;;;;;;10.07;8.13;;;16.80;99.90;;;;;;5093528;28;20016;-75
2023/09/10 04:06:59;;;;;;;10.68;8.63;;;16.80;99.90;;;;;;5093272;28;20035;-75
2023/09/10 04:09:25;;;;;;;11.35;8.77;;;16.80;99.90;;;;;;5093770;28;20028;-76
2023/09/10 04:11:51;;;;;;;12.70;9.20;;;16.70;99.90;;;;;;5093849;28;20028;-75
2023/09/10 04:14:17;;;;;;;13.80;9.52;;;16.70;99.90;;;;;;5093415;28;20448;-76
2023/09/10 04:16:43;;;;;;;12.25;8.93;;;16.70;99.90;;;;;;5093735;28;20036;-75
2023/09/10 04:19:08;;;;;;;10.90;8.15;;;16.70;99.90;;;;;;5093650;28;20024;-76
2023/09/10 04:21:34;;;;;;;10.85;9.27;;;16.70;99.90;;;;;;5093206;28;20043;-77
2023/09/10 04:24:00;;;;;;;13.25;9.93;;;16.60;99.90;;;;;;5093704;28;20128;-76
2023/09/10 04:26:26;;;;;;;13.63;9.88;;;16.60;99.90;;;;;;5093170;28;20034;-77
2023/09/10 04:28:52;;;;;;;19.58;12.73;;;16.60;99.90;;;;;;5093983;28;20028;-77
2023/09/10 04:31:18;;;;;;;12.90;10.40;;;16.70;99.90;;;;;;5093059;28;20111;-77
2023/09/10 04:33:44;;;;;;;18.25;10.93;;;16.70;99.90;;;;;;5093565;28;20051;-77
2023/09/10 04:36:10;;;;;;;13.70;9.60;;;16.70;99.90;;;;;;5093313;28;20032;-77
2023/09/10 04:38:36;;;;;;;11.55;9.77;;;16.70;99.90;;;;;;5075038;28;20383;-77
2023/09/10 04:41:02;;;;;;;13.10;9.50;;;16.70;99.90;;;;;;5093064;28;20036;-77
2023/09/10 04:43:28;;;;;;;13.45;9.82;;;16.70;99.90;;;;;;5092332;28;20081;-76
2023/09/10 04:45:53;;;;;;;11.48;8.70;;;16.60;99.90;;;;;;5093137;28;20052;-76
2023/09/10 04:48:19;;;;;;;11.98;9.32;;;16.60;99.90;;;;;;5092483;28;20101;-76
2023/09/10 04:50:45;;;;;;;11.70;9.95;;;16.70;99.90;;;;;;5093132;28;20034;-76
2023/09/10 04:53:13;;;;;;;14.15;8.68;;;16.60;99.90;;;;;;5092831;28;20368;-76
2023/09/10 04:55:39;;;;;;;12.98;9.27;;;16.70;99.90;;;;;;5093458;28;20028;-76
2023/09/10 04:58:04;;;;;;;12.40;8.55;;;16.80;99.90;;;;;;5074839;28;20035;-76
2023/09/10 05:00:31;;;;;;;11.38;8.80;;;16.80;99.90;;;;;;5092306;28;20024;-76
2023/09/10 05:02:56;;;;;;;10.85;8.70;;;16.70;99.90;;;;;;5092315;28;20036;-77
2023/09/10 05:05:22;;;;;;;9.30;8.13;;;16.80;99.90;;;;;;5092212;28;20168;-76
2023/09/10 05:07:49;;;;;;;11.90;8.35;;;16.80;99.90;;;;;;5092402;28;20028;-76
2023/09/10 05:10:15;;;;;;;10.90;8.63;;;16.80;99.90;;;;;;5092368;28;20032;-77
2023/09/10 05:12:41;;;;;;;15.98;10.80;;;16.90;99.90;;;;;;5092597;28;20375;-76
2023/09/10 05:15:07;;;;;;;22.65;12.38;;;16.90;99.90;;;;;;5074516;28;20028;-74
2023/09/10 05:17:33;;;;;;;28.95;13.82;;;16.90;99.90;;;;;;5092012;28;20109;-76
2023/09/10 05:19:58;;;;;;;26.63;12.63;;;16.90;99.90;;;;;;5074204;28;20420;-76
2023/09/10 05:22:24;;;;;;;34.13;14.50;;;17.00;99.90;;;;;;5092018;28;20111;-76
2023/09/10 05:24:50;;;;;;;39.72;17.75;;;17.00;99.90;;;;;;5092649;28;20024;-76
2023/09/10 05:27:15;;;;;;;48.05;16.65;;;17.10;99.90;;;;;;5091823;28;20467;-76
2023/09/10 05:29:41;;;;;;;53.85;20.83;;;17.10;99.90;;;;;;5091914;28;20027;-76
2023/09/10 05:32:07;;;;;;;63.92;21.10;;;17.10;99.90;;;;;;5092426;28;20115;-76
2023/09/10 05:34:32;;;;;;;62.58;21.67;;;17.20;99.90;;;;;;5091622;28;20794;-76
2023/09/10 05:36:58;;;;;;;67.43;22.25;;;17.20;99.90;;;;;;5092292;28;20031;-75
2023/09/10 05:39:24;;;;;;;84.43;24.70;;;17.20;99.90;;;;;;5091515;28;20103;-75
2023/09/10 05:41:50;;;;;;;93.95;25.40;;;17.30;99.90;;;;;;5091694;28;20060;-75
2023/09/10 05:44:16;;;;;;;122.32;25.95;;;17.30;99.90;;;;;;5073920;28;20047;-75
2023/09/10 05:46:42;;;;;;;104.20;24.42;;;17.30;99.90;;;;;;5092382;28;20040;-75
2023/09/10 05:49:07;;;;;;;67.38;25.05;;;17.40;99.90;;;;;;5092729;28;20111;-76
2023/09/10 05:51:33;;;;;;;63.42;24.00;;;17.40;99.90;;;;;;5091989;28;20032;-76
2023/09/10 05:53:59;;;;;;;153.00;30.63;;;17.40;99.90;;;;;;5092742;28;20449;-76
2023/09/10 05:56:27;;;;;;;175.88;30.45;;;17.40;99.90;;;;;;5092311;28;20054;-76
2023/09/10 05:58:53;;;;;;;83.05;26.92;;;17.50;99.90;;;;;;5092383;28;20361;-76
2023/09/10 06:01:19;;;;;;;81.00;26.42;;;17.50;99.90;;;;;;5091395;28;20466;-76
2023/09/10 06:03:45;;;;;;;81.38;25.95;;;17.50;99.90;;;;;;5092056;28;20035;-76
2023/09/10 06:06:10;;;;;;;75.15;23.25;;;17.50;99.90;;;;;;5091823;28;20028;-76
2023/09/10 06:08:36;;;;;;;129.23;25.85;;;17.40;99.90;;;;;;5091193;28;20024;-76
2023/09/10 06:11:02;;;;;;;114.38;28.65;;;17.50;99.90;;;;;;5091670;28;20142;-76
2023/09/10 06:13:28;;;;;;;52.38;21.98;;;17.50;99.90;;;;;;5090680;28;20096;-76
2023/09/10 06:15:54;;;;;;;77.25;25.02;;;17.60;99.90;;;;;;5091633;28;20032;-76
2023/09/10 06:18:19;;;;;;;114.80;28.10;;;17.60;99.90;;;;;;5090859;28;20020;-76
2023/09/10 06:20:45;;;;;;;99.28;26.30;;;17.60;99.90;;;;;;5091324;28;20035;-76
2023/09/10 06:23:11;;;;;;;104.78;26.85;;;17.60;99.90;;;;;;5091333;28;20032;-77
2023/09/10 06:25:37;;;;;;;66.20;23.70;;;17.60;99.90;;;;;;5090818;28;20032;-76
2023/09/10 06:28:03;;;;;;;68.38;22.33;;;17.60;99.90;;;;;;5091151;28;20081;-75
2023/09/10 06:30:28;;;;;;;60.45;21.80;;;17.60;99.90;;;;;;5090046;28;20036;-75
2023/09/10 06:32:56;;;;;;;64.90;22.20;;;17.60;99.90;;;;;;5091248;28;20417;-75
2023/09/10 06:35:21;;;;;;;78.05;25.83;;;17.70;99.90;;;;;;5090251;28;20067;-75
2023/09/10 06:37:47;;;;;;;62.53;22.92;;;17.80;99.90;;;;;;5091346;28;20055;-75
2023/09/10 06:40:13;;;;;;;56.25;21.30;;;17.80;99.90;;;;;;5090583;28;20111;-75
2023/09/10 06:42:39;;;;;;;93.22;24.27;;;17.80;99.90;;;;;;5090325;28;20187;-75
2023/09/10 06:45:06;;;;;;;72.93;23.83;;;17.80;99.90;;;;;;5090679;28;20020;-75
2023/09/10 06:47:31;;;;;;;76.15;23.85;;;17.80;99.90;;;;;;5089883;28;20060;-75
2023/09/10 06:49:57;;;;;;;107.28;23.77;;;17.80;99.90;;;;;;5072571;28;20032;-75
2023/09/10 06:52:23;;;;;;;52.30;20.40;;;17.80;99.90;;;;;;5090277;28;20087;-75
2023/09/10 06:54:50;;;;;;;105.57;23.60;;;17.80;99.90;;;;;;5090775;28;20032;-75
2023/09/10 06:57:15;;;;;;;62.95;22.40;;;17.80;99.90;;;;;;5072632;28;20110;-75
2023/09/10 06:59:41;;;;;;;81.57;22.75;;;17.70;99.90;;;;;;5089938;28;20447;-75
2023/09/10 07:02:07;;;;;;;46.22;17.85;;;17.80;99.90;;;;;;5072798;28;20032;-76
2023/09/10 07:04:32;;;;;;;58.45;21.27;;;17.90;99.90;;;;;;5089871;28;20116;-76
2023/09/10 07:06:58;;;;;;;52.05;20.23;;;17.90;99.90;;;;;;5091110;28;20028;-76
2023/09/10 07:09:24;;;;;;;55.95;22.20;;;18.00;99.90;;;;;;5090324;28;20069;-76
2023/09/10 07:11:51;;;;;;;79.85;23.48;;;18.00;99.90;;;;;;5090724;28;20028;-75
2023/09/10 07:14:17;;;;;;;52.80;21.13;;;18.00;99.90;;;;;;5090485;28;20021;-75
2023/09/10 07:16:44;;;;;;;81.18;22.40;;;18.10;99.90;;;;;;5090065;28;20020;-76
2023/09/10 07:19:09;;;;;;;58.25;22.08;;;18.10;99.90;;;;;;5090862;28;20028;-76
2023/09/10 07:21:35;;;;;;;54.95;22.35;;;18.10;99.90;;;;;;5090298;28;20111;-76
2023/09/10 07:24:06;;;;;;;98.70;27.48;;;18.10;99.90;;;;;;5090770;28;20115;-76
2023/09/10 07:26:32;;;;;;;126.45;29.00;;;18.20;99.90;;;;;;5090456;28;20103;-76
2023/09/10 07:28:58;;;;;;;109.72;29.85;;;18.20;99.90;;;;;;5090648;28;20034;-75
2023/09/10 07:31:24;;;;;;;62.55;24.48;;;18.10;99.90;;;;;;5089942;28;20024;-76
2023/09/10 07:33:49;;;;;;;62.30;24.67;;;18.20;99.90;;;;;;5090952;28;20035;-77
2023/09/10 07:36:15;;;;;;;70.72;26.98;;;18.30;99.90;;;;;;5090428;28;20402;-75
2023/09/10 07:38:41;;;;;;;54.75;22.65;;;18.50;99.90;;;;;;5089988;28;20055;-75
2023/09/10 07:41:06;;;;;;;52.38;23.88;;;18.50;99.90;;;;;;5090894;28;20469;-76
2023/09/10 07:43:32;;;;;;;41.65;20.45;;;18.60;99.90;;;;;;5093596;28;20032;-76
2023/09/10 07:45:58;;;;;;;58.58;25.50;;;18.80;99.90;;;;;;5094064;28;20109;-76
2023/09/10 07:48:24;;;;;;;46.20;22.77;;;18.80;99.90;;;;;;5093898;28;20020;-76
2023/09/10 07:50:57;;;;;;;44.33;22.95;;;18.80;99.90;;;;;;5093645;28;20059;-76
2023/09/10 07:53:22;;;;;;;;;;;18.80;99.90;;;;;;5094539;28;20024;-76
2023/09/10 07:55:49;;;;;;;45.55;23.38;;;18.70;99.90;;;;;;5093559;28;20017;-76
2023/09/10 07:58:15;;;;;;;50.90;24.20;;;18.80;99.90;;;;;;5094286;28;20054;-77
2023/09/10 08:00:41;;;;;;;50.85;24.85;;;18.60;99.90;;;;;;5093616;28;20032;-76
2023/09/10 08:03:07;;;;;;;45.38;21.77;;;18.70;99.90;;;;;;5094487;28;20036;-77
2023/09/10 08:05:33;;;;;;;49.17;23.48;;;18.80;99.90;;;;;;5093527;28;20565;-76
2023/09/10 08:08:03;;;;;;;46.75;23.20;;;18.90;99.90;;;;;;5094110;28;20027;-75
2023/09/10 08:10:32;;;;;;;42.38;20.83;;;19.00;99.90;;;;;;5093618;28;20024;-77
2023/09/10 08:12:58;;;;;;;48.47;24.80;;;19.10;99.90;;;;;;5094219;28;20035;-76
2023/09/10 08:15:24;;;;;;;53.88;27.17;;;19.20;99.90;;;;;;5094073;28;20080;-75
2023/09/10 08:17:55;;;;;;;47.15;25.10;;;19.10;99.90;;;;;;5093398;28;20111;-77
2023/09/10 08:20:22;;;;;;;48.35;23.83;;;19.20;99.90;;;;;;5094191;28;20497;-77
2023/09/10 08:22:47;;;;;;;52.72;25.70;;;19.20;99.90;;;;;;5093152;28;20043;-77
2023/09/10 08:25:13;;;;;;;42.25;23.13;;;19.40;99.90;;;;;;5093727;28;20028;-76
2023/09/10 08:27:40;;;;;;;42.45;22.33;;;19.50;99.90;;;;;;5093324;28;20036;-76
2023/09/10 08:30:07;;;;;;;46.72;24.88;;;19.60;99.90;;;;;;5093629;28;20036;-78
2023/09/10 08:32:34;;;;;;;44.53;24.92;;;19.80;99.90;;;;;;5093027;28;20028;-76
2023/09/10 08:35:00;;;;;;;41.33;23.08;;;19.90;99.90;;;;;;5093337;28;20028;-77
2023/09/10 08:37:25;;;;;;;45.35;26.80;;;19.90;99.90;;;;;;5092673;28;20459;-75
2023/09/10 08:39:51;;;;;;;43.88;25.30;;;19.90;99.90;;;;;;5074648;28;20024;-76
2023/09/10 08:42:46;;;;;;;40.17;22.80;;;19.90;99.90;;;;;;5076232;28;20048;-76
2023/09/10 08:45:13;;;;;;;37.67;21.55;;;20.00;99.90;;;;;;5078840;28;20036;-76
2023/09/10 08:47:42;;;;;;;35.65;22.92;;;20.20;99.90;;;;;;5092388;28;20351;-77
2023/09/10 08:50:13;;;;;;;34.40;21.67;;;20.30;99.90;;;;;;5092846;28;20028;-77
2023/09/10 08:52:41;;;;;;;34.33;21.65;;;20.50;99.90;;;;;;5073965;28;20028;-76
2023/09/10 08:55:08;;;;;;;30.60;18.63;;;20.70;99.90;;;;;;5092854;28;20020;-77
2023/09/10 08:57:37;;;;;;;25.35;17.95;;;20.80;99.90;;;;;;5092140;28;20484;-77
2023/09/10 09:00:10;;;;;;;26.70;17.75;;;20.90;99.90;;;;;;5092715;28;20120;-76
2023/09/10 09:02:37;;;;;;;18.55;12.63;;;20.90;99.90;;;;;;5074029;28;20028;-76
2023/09/10 09:05:04;;;;;;;17.30;12.93;;;21.00;99.90;;;;;;5092318;28;20035;-76
2023/09/10 09:07:36;;;;;;;21.30;14.93;;;21.00;99.90;;;;;;5091975;28;20484;-76
2023/09/10 09:10:05;;;;;;;18.15;13.05;;;21.00;99.90;;;;;;5092944;28;20045;-78
2023/09/10 09:12:33;;;;;;;17.73;11.75;;;20.90;99.90;;;;;;5092094;28;20036;-75
2023/09/10 09:15:01;;;;;;;18.88;13.55;;;20.90;99.90;;;;;;5092752;28;20452;-78
2023/09/10 09:17:28;;;;;;;22.02;13.05;;;20.80;99.90;;;;;;5074769;28;20066;-78
2023/09/10 09:19:55;;;;;;;19.13;12.95;;;20.90;99.90;;;;;;5092777;28;20061;-78
2023/09/10 09:22:23;;;;;;;18.38;13.25;;;21.00;99.90;;;;;;5092964;28;20070;-77
2023/09/10 09:24:49;;;;;;;15.75;12.30;;;21.00;99.90;;;;;;5092485;28;20028;-78
2023/09/10 09:27:16;;;;;;;14.20;9.38;;;21.00;99.90;;;;;;5092253;28;20442;-76
2023/09/10 09:29:43;;;;;;;12.30;9.15;;;21.00;99.90;;;;;;5091521;28;20381;-75
2023/09/10 09:32:09;;;;;;;17.60;11.00;;;21.10;99.90;;;;;;5074150;28;20028;-76
2023/09/10 09:34:34;;;;;;;13.93;9.60;;;21.10;99.90;;;;;;5091560;28;20047;-77
2023/09/10 09:37:01;;;;;;;12.50;10.27;;;21.10;99.90;;;;;;5092238;28;20437;-77
2023/09/10 09:39:29;;;;;;;17.33;12.57;;;21.20;99.90;;;;;;5091747;28;20024;-77
2023/09/10 09:41:54;;;;;;;13.38;10.57;;;21.20;99.90;;;;;;5091709;28;20032;-77
2023/09/10 09:44:20;;;;;;;16.42;10.57;;;21.30;99.90;;;;;;5092020;28;20043;-76
2023/09/10 09:46:48;;;;;;;21.10;13.13;;;21.40;99.90;;;;;;5091205;28;20414;-77
2023/09/10 09:49:14;;;;;;;25.35;14.93;;;21.30;99.90;;;;;;5092129;28;20035;-77
2023/09/10 09:51:40;;;;;;;20.63;14.45;;;21.40;99.90;;;;;;5091163;28;20387;-76
2023/09/10 09:54:09;;;;;;;17.92;12.57;;;21.40;99.90;;;;;;5091429;28;20481;-76
2023/09/10 09:56:37;;;;;;;20.23;12.38;;;21.40;99.90;;;;;;5090753;28;20039;-77
2023/09/10 09:59:03;;;;;;;19.23;14.23;;;21.30;99.90;;;;;;5091667;28;20039;-77
2023/09/10 10:01:29;;;;;;;22.38;15.13;;;21.30;99.90;;;;;;5091558;28;20480;-76
2023/09/10 10:03:57;;;;;;;19.48;13.88;;;21.10;99.90;;;;;;5090578;28;20028;-77
2023/09/10 10:06:23;;;;;;;21.52;14.38;;;21.00;99.90;;;;;;5091598;28;20039;-76
2023/09/10 10:08:50;;;;;;;19.25;13.50;;;21.00;99.90;;;;;;5090589;28;20024;-77
2023/09/10 10:11:27;;;;;;;23.38;14.23;;;21.00;99.90;;;;;;5091581;28;20116;-77
2023/09/10 10:13:53;;;;;;;19.85;13.48;;;20.90;99.90;;;;;;5090798;28;20038;-85
2023/09/10 10:16:20;;;;;;;19.77;13.45;;;20.90;99.90;;;;;;5075161;28;20353;-80
2023/09/10 10:18:47;;;;;;;33.38;16.52;;;20.90;99.90;;;;;;5074359;28;20031;-85
2023/09/10 10:21:14;;;;;;;43.97;18.45;;;20.80;99.90;;;;;;5074337;28;20051;-81
2023/09/10 10:23:41;;;;;;;43.80;23.50;;;20.80;99.90;;;;;;5073578;28;20369;-84
2023/09/10 10:26:08;;;;;;;39.30;23.58;;;20.60;99.90;;;;;;5093597;28;20044;-87
2023/09/10 10:28:35;;;;;;;54.97;27.95;;;20.40;99.90;;;;;;5093307;28;20024;-88
2023/09/10 10:31:16;;;;;;;37.47;25.58;;;20.10;99.90;;;;;;5075311;28;20039;-84
2023/09/10 10:33:51;;;;;;;35.42;24.00;;;20.00;99.90;;;;;;5094467;28;20039;-87
2023/09/10 10:36:39;;;;;;;48.13;25.52;;;19.90;99.90;;;;;;5075087;28;20431;-83
2023/09/10 10:39:13;;;;;;;84.35;32.17;;;19.90;99.90;;;;;;5073182;28;20410;-83
2023/09/10 10:41:44;;;;;;;120.50;36.20;;;19.80;99.90;;;;;;5090937;28;20085;-83
2023/09/10 10:44:24;;;;;;;50.08;27.15;;;19.70;99.90;;;;;;5074473;28;20062;-88
2023/09/10 10:47:12;;;;;;;44.08;24.27;;;19.50;99.90;;;;;;5093443;28;20101;-85
2023/09/10 10:49:45;;;;;;;35.72;22.10;;;19.40;99.90;;;;;;5073859;28;20027;-78
2023/09/10 10:52:14;;;;;;;39.65;22.83;;;19.40;99.90;;;;;;5092077;28;20119;-76
2023/09/10 10:54:42;;;;;;;42.40;24.92;;;19.50;99.90;;;;;;5089857;28;20027;-75
2023/09/10 10:57:09;;;;;;;31.60;19.33;;;19.60;99.90;;;;;;5090559;28;20390;-76
2023/09/10 10:59:35;;;;;;;34.20;21.10;;;19.60;99.90;;;;;;5090277;28;20130;-76
2023/09/10 11:02:22;;;;;;;33.38;21.80;;;19.70;99.90;;;;;;5090024;28;20051;-75
2023/09/10 11:05:03;;;;;;;29.30;19.45;;;19.80;99.90;;;;;;5089386;28;20027;-74
2023/09/10 11:07:30;;;;;;;23.27;15.60;;;19.80;99.90;;;;;;5088747;28;20458;-74
2023/09/10 11:10:18;;;;;;;40.35;28.67;;;19.80;99.90;;;;;;5089728;28;20751;-75
2023/09/10 11:13:10;;;;;;;33.60;21.45;;;19.80;99.90;;;;;;5088115;28;20031;-75
2023/09/10 11:15:56;;;;;;;29.33;19.52;;;19.70;99.90;;;;;;5091263;28;20362;-79
2023/09/10 11:18:37;;;;;;;32.67;17.95;;;19.80;99.90;;;;;;5077931;28;20461;-83
2023/09/10 11:21:03;;;;;;;29.42;19.30;;;19.80;99.90;;;;;;5078008;28;20032;-80
2023/09/10 11:23:30;;;;;;;36.40;22.30;;;19.90;99.90;;;;;;5096098;28;20116;-77
2023/09/10 11:26:14;;;;;;;34.78;23.95;;;19.90;99.90;;;;;;5095229;28;20028;-76
2023/09/10 11:28:52;;;;;;;29.98;21.30;;;19.90;99.90;;;;;;5095554;28;20050;-84
2023/09/10 11:31:40;;;;;;;41.35;26.27;;;20.00;99.90;;;;;;5097418;28;20032;-83
2023/09/10 11:34:18;;;;;;;38.42;23.52;;;20.10;99.90;;;;;;5094895;28;20024;-78
2023/09/10 11:36:45;;;;;;;35.60;23.42;;;20.10;99.90;;;;;;5094946;28;20028;-76
2023/09/10 11:39:13;;;;;;;37.67;25.52;;;20.10;99.90;;;;;;5094359;28;20020;-75
2023/09/10 11:41:39;;;;;;;38.50;26.20;;;20.30;99.90;;;;;;5093921;28;20118;-77
2023/09/10 11:44:04;;;;;;;35.95;24.58;;;20.30;99.90;;;;;;5094437;28;20111;-75
2023/09/10 11:46:30;;;;;;;38.63;26.73;;;20.20;99.90;;;;;;5094581;28;20098;-76
2023/09/10 11:48:58;;;;;;;43.05;29.25;;;20.40;99.90;;;;;;5093430;28;20020;-77
2023/09/10 11:51:23;;;;;;;34.53;23.33;;;20.40;99.90;;;;;;5094418;28;20081;-76
2023/09/10 11:53:49;;;;;;;29.73;19.83;;;20.40;99.90;;;;;;5093531;28;20380;-75
2023/09/10 11:56:15;;;;;;;25.58;17.25;;;20.60;99.90;;;;;;5094063;28;20043;-76
2023/09/10 11:58:42;;;;;;;38.40;24.27;;;20.60;99.90;;;;;;5093406;28;20048;-76
2023/09/10 12:01:09;;;;;;;31.25;20.88;;;20.70;99.90;;;;;;5094262;28;20465;-76
2023/09/10 12:03:35;;;;;;;31.25;23.38;;;20.90;99.90;;;;;;5093804;28;20028;-76
2023/09/10 12:06:02;;;;;;;33.65;22.30;;;20.90;99.90;;;;;;5093807;28;20461;-76
2023/09/10 12:08:27;;;;;;;34.33;22.55;;;20.90;99.90;;;;;;5093954;28;20028;-75
2023/09/10 12:10:58;;;;;;;40.03;24.40;;;20.90;99.90;;;;;;5093253;28;20035;-76
2023/09/10 12:13:24;;;;;;;40.08;24.67;;;20.70;99.90;;;;;;5094266;28;20075;-77
2023/09/10 12:15:52;;;;;;;28.58;20.13;;;20.60;99.90;;;;;;5074792;28;20028;-76
2023/09/10 12:18:21;;;;;;;26.00;19.17;;;20.60;99.90;;;;;;5093684;28;20355;-79
2023/09/10 12:20:47;;;;;;;34.88;22.52;;;20.50;99.90;;;;;;5095022;28;20123;-77
2023/09/10 12:23:13;;;;;;;41.40;26.08;;;20.50;99.90;;;;;;5078965;28;20324;-76
2023/09/10 12:25:39;;;;;;;33.33;24.33;;;20.50;99.90;;;;;;5093607;28;20028;-77
2023/09/10 12:28:09;;;;;;;43.63;29.77;;;20.40;99.90;;;;;;5092978;28;20032;-76
2023/09/10 12:30:35;;;;;;;42.45;28.77;;;20.40;99.90;;;;;;5094257;28;20032;-75
2023/09/10 12:33:02;;;;;;;37.58;26.00;;;20.40;99.90;;;;;;5093230;28;20024;-77